createdAt,value
2019-04-26T00:01:55.075Z,95717.34
2019-04-26T00:04:25.916Z,95716.33
2019-04-26T00:06:56.521Z,95718.96
2019-04-26T00:09:38.136Z,95712.03
2019-04-26T00:12:30.678Z,95708.16
2019-04-26T00:15:19.462Z,95705.88
2019-04-26T00:17:58.468Z,95701.87
2019-04-26T00:20:29.032Z,95698.80
2019-04-26T00:22:59.604Z,95700.53
2019-04-26T00:25:30.150Z,95705.69
2019-04-26T00:28:00.633Z,95705.22
2019-04-26T00:30:31.376Z,95708.73
2019-04-26T00:33:02.124Z,95719.03
2019-04-26T00:35:32.660Z,95713.19
2019-04-26T00:38:03.205Z,95703.30
2019-04-26T00:40:34.341Z,95710.02
2019-04-26T00:43:05.187Z,95717.20
2019-04-26T00:45:38.215Z,95714.64
2019-04-26T00:48:10.484Z,95732.56
2019-04-26T00:50:41.458Z,95732.28
2019-04-26T00:53:13.244Z,95741.74
2019-04-26T00:55:44.868Z,95734.03
2019-04-26T00:58:16.606Z,95727.62
2019-04-26T01:00:49.937Z,95725.41
2019-04-26T01:03:20.663Z,95733.29
2019-04-26T01:05:59.779Z,95739.87
2019-04-26T01:08:23.601Z,95735.84
2019-04-26T01:10:54.244Z,95741.63
2019-04-26T01:13:24.730Z,95735.89
2019-04-26T01:15:55.431Z,95739.87
2019-04-26T01:18:26.430Z,95737.54
2019-04-26T01:21:00.141Z,95739.16
2019-04-26T01:23:33.910Z,95740.47
2019-04-26T01:26:09.338Z,95736.53
2019-04-26T01:29:07.069Z,95732.52
2019-04-26T01:31:48.415Z,95733.17
2019-04-26T01:34:20.290Z,95715.98
2019-04-26T01:36:53.874Z,95728.61
2019-04-26T01:39:25.556Z,95738.48
2019-04-26T01:42:12.256Z,95731.08
2019-04-26T01:44:56.630Z,95743.03
2019-04-26T01:47:28.312Z,95729.84
2019-04-26T01:49:59.290Z,95738.34
2019-04-26T01:52:29.779Z,95730.01
2019-04-26T01:55:00.167Z,95724.66
2019-04-26T01:57:32.392Z,95720.88
2019-04-26T02:00:16.243Z,95726.36
2019-04-26T02:02:57.008Z,95728.41
2019-04-26T02:05:28.013Z,95712.59
2019-04-26T02:07:59.004Z,95707.20
2019-04-26T02:10:30.678Z,95716.59
2019-04-26T02:13:02.288Z,95714.73
2019-04-26T02:15:34.179Z,95696.95
2019-04-26T02:18:05.106Z,95696.53
2019-04-26T02:21:20.366Z,95706.19
2019-04-26T02:23:59.515Z,95711.66
2019-04-26T02:26:39.975Z,95703.58
2019-04-26T02:29:17.112Z,95701.84
2019-04-26T02:31:53.486Z,95698.83
2019-04-26T02:34:27.213Z,95695.52
2019-04-26T02:37:00.281Z,95692.03
2019-04-26T02:39:37.730Z,95690.28
2019-04-26T02:42:24.204Z,95692.92
2019-04-26T02:48:32.654Z,95679.70
2019-04-26T02:51:09.513Z,95679.91
2019-04-26T02:54:08.978Z,95677.40
2019-04-26T02:56:42.504Z,95676.55
2019-04-26T02:59:44.792Z,95673.16
2019-04-26T03:02:36.150Z,95676.16
2019-04-26T03:05:09.889Z,95678.07
2019-04-26T03:07:57.717Z,95670.69
2019-04-26T03:10:43.517Z,95674.41
2019-04-26T03:13:30.744Z,95669.09
2019-04-26T03:16:22.508Z,95666.75
2019-04-26T03:19:04.692Z,95672.72
2019-04-26T03:22:07.873Z,95687.51
2019-04-26T03:24:56.388Z,95684.64
2019-04-26T03:28:03.175Z,95686.67
2019-04-26T03:30:56.861Z,95690.27
2019-04-26T03:34:21.174Z,95687.16
2019-04-26T03:37:59.412Z,95693.70
2019-04-26T03:41:05.478Z,95684.84
2019-04-26T03:44:22.648Z,95685.34
2019-04-26T03:46:59.629Z,95691.41
2019-04-26T03:50:14.151Z,95703.70
2019-04-26T03:53:35.501Z,95701.34
2019-04-26T03:56:26.420Z,95704.27
2019-04-26T03:59:24.533Z,95708.66
2019-04-26T04:02:24.244Z,95720.98
2019-04-26T04:05:19.121Z,95733.46
2019-04-26T04:07:52.771Z,95721.95
2019-04-26T04:10:29.273Z,95727.91
2019-04-26T04:13:17.504Z,95727.81
2019-04-26T04:15:51.378Z,95726.13
2019-04-26T04:18:25.387Z,95719.96
2019-04-26T04:21:43.058Z,95723.91
2019-04-26T04:24:31.847Z,95736.53
2019-04-26T04:27:45.936Z,95731.63
2019-04-26T04:31:02.921Z,95749.34
2019-04-26T04:34:16.340Z,95744.49
2019-04-26T04:36:51.530Z,95742.27
2019-04-26T04:40:01.533Z,95746.28
2019-04-26T04:42:52.657Z,95744.66
2019-04-26T04:46:00.423Z,95753.02
2019-04-26T04:49:06.476Z,95744.93
2019-04-26T04:52:46.471Z,95758.95
2019-04-26T04:56:25.735Z,95758.64
2019-04-26T04:59:00.304Z,95757.46
2019-04-26T05:02:15.278Z,95778.09
2019-04-26T05:05:22.921Z,95789.28
2019-04-26T05:08:17.788Z,95806.84
2019-04-26T05:11:17.339Z,95800.74
2019-04-26T05:14:06.347Z,95805.47
2019-04-26T05:17:25.002Z,95803.68
2019-04-26T05:20:28.520Z,95815.10
2019-04-26T05:23:56.786Z,95816.14
2019-04-26T05:27:20.648Z,95831.34
2019-04-26T05:31:16.210Z,95840.03
2019-04-26T05:34:49.008Z,95847.31
2019-04-26T05:37:57.265Z,95851.67
2019-04-26T05:41:27.890Z,95861.91
2019-04-26T05:44:25.263Z,95873.74
2019-04-26T05:47:40.601Z,95881.88
2019-04-26T05:51:12.246Z,95885.72
2019-04-26T05:54:26.282Z,95885.00
2019-04-26T05:57:51.464Z,95887.80
2019-04-26T06:00:47.365Z,95896.56
2019-04-26T06:04:16.245Z,95903.37
2019-04-26T06:07:19.243Z,95917.17
2019-04-26T06:10:26.819Z,95915.03
2019-04-26T06:13:29.186Z,95921.98
2019-04-26T06:16:19.062Z,95921.89
2019-04-26T06:19:29.383Z,95923.34
2019-04-26T06:22:13.048Z,95917.23
2019-04-26T06:25:30.924Z,95917.44
2019-04-26T06:28:39.511Z,95929.67
2019-04-26T06:31:27.658Z,95925.77
2019-04-26T06:34:36.259Z,95925.91
2019-04-26T06:37:21.271Z,95926.81
2019-04-26T06:40:16.042Z,95936.27
2019-04-26T06:43:28.464Z,95932.77
2019-04-26T06:46:56.288Z,95944.08
2019-04-26T06:50:10.032Z,95952.33
2019-04-26T06:52:58.446Z,95963.27
2019-04-26T06:55:47.025Z,95961.71
2019-04-26T06:59:06.463Z,95958.02
2019-04-26T07:01:54.823Z,95969.61
2019-04-26T07:05:02.994Z,95965.09
2019-04-26T07:08:38.041Z,95976.94
2019-04-26T07:12:29.424Z,95972.40
2019-04-26T07:15:48.752Z,95972.28
2019-04-26T07:19:14.179Z,95985.88
2019-04-26T07:22:38.915Z,95985.24
2019-04-26T07:26:20.433Z,95979.20
2019-04-26T07:29:47.113Z,95988.30
2019-04-26T07:32:43.803Z,95993.34
2019-04-26T07:35:48.641Z,95994.53
2019-04-26T07:39:13.280Z,95989.45
2019-04-26T07:42:21.587Z,95994.98
2019-04-26T07:45:45.524Z,95994.41
2019-04-26T07:49:10.258Z,96000.89
2019-04-26T07:52:37.079Z,96007.40
2019-04-26T07:55:51.551Z,96004.72
2019-04-26T07:59:26.053Z,96011.38
2019-04-26T08:02:32.544Z,96016.27
2019-04-26T08:05:18.487Z,96005.41
2019-04-26T08:07:56.103Z,96014.66
2019-04-26T08:10:29.268Z,96019.73
2019-04-26T08:13:11.134Z,96014.03
2019-04-26T08:16:08.633Z,96020.97
2019-04-26T08:18:51.177Z,96041.34
2019-04-26T08:21:31.716Z,96044.94
2019-04-26T08:24:16.911Z,96041.75
2019-04-26T08:27:08.785Z,96038.17
2019-04-26T08:29:35.936Z,96038.99
2019-04-26T08:32:10.097Z,96039.95
2019-04-26T08:34:46.674Z,96031.33
2019-04-26T08:37:26.361Z,96049.13
2019-04-26T08:39:58.584Z,96049.55
2019-04-26T08:42:36.936Z,96054.23
2019-04-26T08:45:19.603Z,96052.33
2019-04-26T08:48:05.573Z,96049.36
2019-04-26T08:50:42.285Z,96053.95
2019-04-26T08:53:13.482Z,96054.63
2019-04-26T08:55:46.968Z,96059.47
2019-04-26T08:58:19.889Z,96065.25
2019-04-26T09:01:00.060Z,96061.91
2019-04-26T09:03:55.025Z,96064.79
2019-04-26T09:06:31.099Z,96053.48
2019-04-26T09:09:14.303Z,96060.93
2019-04-26T09:11:44.314Z,96077.56
2019-04-26T09:14:15.638Z,96079.92
2019-04-26T09:16:50.414Z,96074.53
2019-04-26T09:19:18.592Z,96076.14
2019-04-26T09:22:12.911Z,96080.41
2019-04-26T09:25:01.037Z,96087.48
2019-04-26T09:27:35.951Z,96084.44
2019-04-26T09:30:14.180Z,96095.62
2019-04-26T09:32:49.150Z,96085.95
2019-04-26T09:35:19.621Z,96094.53
2019-04-26T09:37:50.133Z,96109.66
2019-04-26T09:40:22.671Z,96113.63
2019-04-26T09:43:15.023Z,96116.91
2019-04-26T09:46:14.551Z,96115.94
2019-04-26T09:49:13.154Z,96116.09
2019-04-26T09:51:43.573Z,96115.39
2019-04-26T09:54:16.796Z,96119.53
2019-04-26T09:56:47.261Z,96122.67
2019-04-26T09:59:18.346Z,96130.20
2019-04-26T10:01:48.728Z,96122.77
2019-04-26T10:04:19.301Z,96115.88
2019-04-26T10:06:49.689Z,96127.22
2019-04-26T10:09:21.157Z,96130.59
2019-04-26T10:11:56.131Z,96132.45
2019-04-26T10:14:42.784Z,96130.03
2019-04-26T10:17:19.478Z,96134.88
2019-04-26T10:19:51.710Z,96135.33
2019-04-26T10:22:23.197Z,96150.30
2019-04-26T10:24:53.701Z,96151.03
2019-04-26T10:27:24.084Z,96151.11
2019-04-26T10:29:56.133Z,96139.58
2019-04-26T10:32:27.867Z,96149.27
2019-04-26T10:34:58.399Z,96144.56
2019-04-26T10:37:38.943Z,96149.55
2019-04-26T10:40:01.072Z,96150.12
2019-04-26T10:42:31.769Z,96152.05
2019-04-26T10:45:02.272Z,96150.84
2019-04-26T10:47:34.366Z,96155.20
2019-04-26T10:50:05.290Z,96163.82
2019-04-26T10:52:53.110Z,96163.92
2019-04-26T10:55:41.226Z,96158.86
2019-04-26T10:58:36.325Z,96165.86
2019-04-26T11:01:11.646Z,96167.63
2019-04-26T11:03:42.176Z,96172.45
2019-04-26T11:06:12.752Z,96166.45
2019-04-26T11:08:43.130Z,96179.05
2019-04-26T11:11:13.672Z,96178.72
2019-04-26T11:13:44.107Z,96176.39
2019-04-26T11:16:14.514Z,96175.80
2019-04-26T11:18:44.974Z,96189.54
2019-04-26T11:21:16.356Z,96178.78
2019-04-26T11:23:49.933Z,96185.52
2019-04-26T11:26:19.761Z,96194.14
2019-04-26T11:28:51.308Z,96196.85
2019-04-26T11:31:23.349Z,96204.30
2019-04-26T11:34:04.646Z,96209.06
2019-04-26T11:36:26.574Z,96210.73
2019-04-26T11:38:57.175Z,96202.84
2019-04-26T11:41:27.629Z,96209.11
2019-04-26T11:43:58.190Z,96212.35
2019-04-26T11:46:30.070Z,96226.38
2019-04-26T11:49:03.248Z,96221.84
2019-04-26T11:51:33.009Z,96224.65
2019-04-26T11:54:03.511Z,96222.84
2019-04-26T11:56:34.105Z,96223.55
2019-04-26T11:59:06.361Z,96224.83
2019-04-26T12:01:40.202Z,96229.88
2019-04-26T12:04:37.093Z,96241.67
2019-04-26T12:07:17.146Z,96258.06
2019-04-26T12:09:48.707Z,96276.23
2019-04-26T12:12:19.147Z,96282.84
2019-04-26T12:14:49.550Z,96273.22
2019-04-26T12:17:19.977Z,96274.25
2019-04-26T12:19:52.276Z,96293.12
2019-04-26T12:22:22.563Z,96296.98
2019-04-26T12:24:52.990Z,96299.41
2019-04-26T12:27:26.566Z,96296.78
2019-04-26T12:29:55.614Z,96304.49
2019-04-26T12:32:26.114Z,96311.97
2019-04-26T12:34:56.571Z,96306.13
2019-04-26T12:37:26.892Z,96294.08
2019-04-26T12:39:57.356Z,96301.25
2019-04-26T12:42:27.786Z,96316.03
2019-04-26T12:45:16.727Z,96334.36
2019-04-26T12:47:51.393Z,96342.77
2019-04-26T12:50:21.872Z,96346.60
2019-04-26T12:52:55.528Z,96354.88
2019-04-26T12:55:24.517Z,96356.11
2019-04-26T12:57:54.978Z,96355.86
2019-04-26T13:00:28.589Z,96365.92
2019-04-26T13:03:00.830Z,96379.94
2019-04-26T13:05:31.248Z,96382.34
2019-04-26T13:08:01.574Z,96387.02
2019-04-26T13:10:50.933Z,96370.92
2019-04-26T13:13:28.379Z,96363.88
2019-04-26T13:16:11.511Z,96368.73
2019-04-26T13:18:45.339Z,96366.11
2019-04-26T13:21:14.071Z,96368.20
2019-04-26T13:23:44.515Z,96385.34
2019-04-26T13:26:15.012Z,96397.48
2019-04-26T13:28:45.464Z,96411.56
2019-04-26T13:31:15.915Z,96403.27
2019-04-26T13:33:46.344Z,96402.00
2019-04-26T13:36:16.828Z,96416.56
2019-04-26T13:38:47.243Z,96421.41
2019-04-26T13:41:17.711Z,96411.11
2019-04-26T13:43:48.143Z,96382.05
2019-04-26T13:46:43.382Z,96391.86
2019-04-26T13:49:22.587Z,96398.63
2019-04-26T13:51:53.133Z,96419.77
2019-04-26T13:54:23.597Z,96434.51
2019-04-26T13:56:54.014Z,96441.65
2019-04-26T13:59:24.421Z,96448.84
2019-04-26T14:01:54.863Z,96469.75
2019-04-26T14:04:25.227Z,96481.42
2019-04-26T14:06:55.576Z,96480.19
2019-04-26T14:09:25.963Z,96470.30
2019-04-26T14:11:58.027Z,96443.11
2019-04-26T14:14:30.253Z,96443.46
2019-04-26T14:17:00.718Z,96450.73
2019-04-26T14:19:31.142Z,96444.56
2019-04-26T14:22:03.231Z,96451.05
2019-04-26T14:24:39.118Z,96465.52
2019-04-26T14:27:19.425Z,96474.89
2019-04-26T14:29:49.842Z,96496.41
2019-04-26T14:32:22.867Z,96494.79
2019-04-26T14:34:52.451Z,96486.61
2019-04-26T14:37:22.971Z,96496.63
2019-04-26T14:39:55.335Z,96500.06
2019-04-26T14:42:33.741Z,96502.45
2019-04-26T14:44:57.577Z,96497.44
2019-04-26T14:47:30.394Z,96506.02
2019-04-26T14:50:13.089Z,96492.89
2019-04-26T14:52:32.240Z,96480.53
2019-04-26T14:55:02.693Z,96494.84
2019-04-26T14:57:33.941Z,96495.39
2019-04-26T15:00:05.200Z,96494.40
2019-04-26T15:03:00.555Z,96488.89
2019-04-26T15:05:54.029Z,96489.88
2019-04-26T15:08:24.585Z,96502.37
2019-04-26T15:11:00.785Z,96507.12
2019-04-26T15:13:27.323Z,96511.98
2019-04-26T15:15:58.131Z,96514.61
2019-04-26T15:18:29.236Z,96501.91
2019-04-26T15:21:00.883Z,96499.39
2019-04-26T15:23:32.881Z,96519.71
2019-04-26T15:26:03.531Z,96527.84
2019-04-26T15:28:33.960Z,96537.98
2019-04-26T15:31:04.307Z,96540.12
2019-04-26T15:33:36.097Z,96546.05
2019-04-26T15:36:10.583Z,96542.08
2019-04-26T15:38:41.677Z,96537.34
2019-04-26T15:41:34.276Z,96540.03
2019-04-26T15:44:24.871Z,96541.47
2019-04-26T15:47:16.975Z,96539.38
2019-04-26T15:49:54.015Z,96537.75
2019-04-26T15:52:24.399Z,96540.03
2019-04-26T15:54:58.946Z,96543.63
2019-04-26T15:57:30.902Z,96542.45
2019-04-26T15:59:59.242Z,96550.14
2019-04-26T16:02:29.644Z,96548.50
2019-04-26T16:05:00.038Z,96548.17
2019-04-26T16:07:30.507Z,96559.30
2019-04-26T16:10:00.984Z,96549.69
2019-04-26T16:12:32.082Z,96533.86
2019-04-26T16:15:06.398Z,96533.17
2019-04-26T16:17:36.191Z,96540.04
2019-04-26T16:20:07.820Z,96548.54
2019-04-26T16:22:38.167Z,96560.64
2019-04-26T16:25:09.025Z,96559.02
2019-04-26T16:27:39.439Z,96559.66
2019-04-26T16:30:28.375Z,96568.50
2019-04-26T16:33:15.847Z,96567.88
2019-04-26T16:35:46.352Z,96567.52
2019-04-26T16:38:33.226Z,96569.44
2019-04-26T16:41:04.310Z,96563.50
2019-04-26T16:43:40.264Z,96566.98
2019-04-26T16:46:07.457Z,96561.30
2019-04-26T16:48:37.900Z,96564.61
2019-04-26T16:51:08.776Z,96567.23
2019-04-26T16:53:58.491Z,96570.01
2019-04-26T16:56:11.679Z,96568.20
2019-04-26T16:58:45.239Z,96561.70
2019-04-26T17:01:15.087Z,96560.03
2019-04-26T17:03:48.127Z,96554.14
2019-04-26T17:06:18.261Z,96554.76
2019-04-26T17:08:51.558Z,96557.89
2019-04-26T17:11:22.787Z,96557.79
2019-04-26T17:13:56.912Z,96562.87
2019-04-26T17:16:25.681Z,96566.07
2019-04-26T17:18:59.541Z,96563.03
2019-04-26T17:21:30.109Z,96558.50
2019-04-26T17:24:19.472Z,96558.13
2019-04-26T17:26:57.195Z,96552.19
2019-04-26T17:29:27.535Z,96551.69
2019-04-26T17:31:58.005Z,96537.77
2019-04-26T17:34:30.265Z,96548.53
2019-04-26T17:37:02.382Z,96546.23
2019-04-26T17:39:32.972Z,96549.50
2019-04-26T17:42:03.438Z,96559.71
2019-04-26T17:44:34.160Z,96554.84
2019-04-26T17:47:04.730Z,96549.45
2019-04-26T17:49:38.351Z,96549.95
2019-04-26T17:52:07.404Z,96552.84
2019-04-26T17:54:48.995Z,96547.16
2019-04-26T17:57:14.443Z,96553.21
2019-04-26T17:59:47.802Z,96555.77
2019-04-26T18:02:25.881Z,96547.92
2019-04-26T18:04:58.198Z,96546.99
2019-04-26T18:07:37.553Z,96548.40
2019-04-26T18:09:52.510Z,96548.78
2019-04-26T18:12:22.914Z,96559.91
2019-04-26T18:14:53.213Z,96560.89
2019-04-26T18:17:33.061Z,96566.48
2019-04-26T18:20:13.522Z,96555.05
2019-04-26T18:22:47.696Z,96563.58
2019-04-26T18:25:18.185Z,96554.76
2019-04-26T18:27:48.683Z,96550.88
2019-04-26T18:30:19.354Z,96559.05
2019-04-26T18:32:49.850Z,96566.25
2019-04-26T18:35:20.288Z,96567.55
2019-04-26T18:37:50.609Z,96564.25
2019-04-26T18:40:23.061Z,96571.77
2019-04-26T18:42:55.083Z,96566.58
2019-04-26T18:45:29.688Z,96567.39
2019-04-26T18:48:01.464Z,96568.24
2019-04-26T18:50:32.853Z,96574.95
2019-04-26T18:53:20.387Z,96570.70
2019-04-26T18:55:53.449Z,96584.14
2019-04-26T18:58:23.975Z,96581.33
2019-04-26T19:00:57.339Z,96587.57
2019-04-26T19:03:30.153Z,96585.58
2019-04-26T19:06:02.575Z,96579.07
2019-04-26T19:08:43.643Z,96582.02
2019-04-26T19:11:03.529Z,96575.16
2019-04-26T19:13:56.947Z,96576.78
2019-04-26T19:16:41.166Z,96574.37
2019-04-26T19:19:39.276Z,96576.66
2019-04-26T19:22:13.948Z,96583.39
2019-04-26T19:24:42.329Z,96585.87
2019-04-26T19:27:12.678Z,96584.70
2019-04-26T19:29:43.377Z,96575.58
2019-04-26T19:32:13.852Z,96572.17
2019-04-26T19:34:44.288Z,96577.08
2019-04-26T19:37:14.671Z,96583.48
2019-04-26T19:39:45.128Z,96578.87
2019-04-26T19:42:15.623Z,96582.50
2019-04-26T19:44:49.435Z,96588.57
2019-04-26T19:47:43.954Z,96593.98
2019-04-26T19:50:30.619Z,96590.53
2019-04-26T19:53:10.305Z,96589.11
2019-04-26T19:56:05.375Z,96589.44
2019-04-26T19:58:36.550Z,96593.19
2019-04-26T20:01:06.961Z,96594.81
2019-04-26T20:03:37.394Z,96599.72
2019-04-26T20:06:07.735Z,96598.57
2019-04-26T20:08:43.939Z,96601.87
2019-04-26T20:11:12.767Z,96599.88
2019-04-26T20:13:42.781Z,96591.71
2019-04-26T20:16:14.622Z,96588.79
2019-04-26T20:18:44.992Z,96587.48
2019-04-26T20:21:15.653Z,96592.05
2019-04-26T20:23:47.574Z,96596.95
2019-04-26T20:26:18.199Z,96604.11
2019-04-26T20:28:48.652Z,96597.91
2019-04-26T20:31:51.944Z,96594.97
2019-04-26T20:34:22.132Z,96594.83
2019-04-26T20:36:52.603Z,96594.05
2019-04-26T20:39:24.080Z,96597.00
2019-04-26T20:42:01.081Z,96593.72
2019-04-26T20:44:28.872Z,96604.83
2019-04-26T20:46:59.829Z,96615.30
2019-04-26T20:49:31.995Z,96620.84
2019-04-26T20:52:02.391Z,96627.22
2019-04-26T20:54:32.733Z,96622.80
2019-04-26T20:57:03.286Z,96628.35
2019-04-26T20:59:33.576Z,96624.13
2019-04-26T21:02:08.151Z,96616.92
2019-04-26T21:04:38.467Z,96615.28
2019-04-26T21:07:11.334Z,96617.55
2019-04-26T21:09:43.399Z,96617.20
2019-04-26T21:12:15.862Z,96615.55
2019-04-26T21:14:45.696Z,96616.86
2019-04-26T21:17:19.350Z,96614.94
2019-04-26T21:19:49.894Z,96608.08
2019-04-26T21:22:25.483Z,96612.81
2019-04-26T21:24:58.490Z,96626.17
2019-04-26T21:28:02.446Z,96625.39
2019-04-26T21:30:39.439Z,96625.04
2019-04-26T21:33:28.621Z,96624.72
2019-04-26T21:36:29.539Z,96622.75
2019-04-26T21:39:07.419Z,96617.50
2019-04-26T21:41:40.422Z,96614.89
2019-04-26T21:44:12.306Z,96615.73
2019-04-26T21:46:43.478Z,96612.94
2019-04-26T21:49:20.376Z,96613.91
2019-04-26T21:51:51.165Z,96616.87
2019-04-26T21:54:19.417Z,96613.59
2019-04-26T21:56:50.013Z,96607.35
2019-04-26T21:59:20.359Z,96615.88
2019-04-26T22:01:53.879Z,96618.17
2019-04-26T22:04:24.433Z,96617.86
2019-04-26T22:06:55.646Z,96626.84
2019-04-26T22:09:48.026Z,96622.92
2019-04-26T22:12:18.570Z,96616.69
2019-04-26T22:14:58.275Z,96619.44
2019-04-26T22:17:40.618Z,96623.20
2019-04-26T22:20:18.765Z,96611.93
2019-04-26T22:23:11.521Z,96618.77
2019-04-26T22:25:42.190Z,96615.53
2019-04-26T22:28:13.120Z,96609.32
2019-04-26T22:30:43.664Z,96614.55
2019-04-26T22:33:14.068Z,96619.91
2019-04-26T22:35:44.424Z,96622.03
2019-04-26T22:38:17.471Z,96629.88
2019-04-26T22:40:48.523Z,96631.84
2019-04-26T22:43:37.869Z,96622.69
2019-04-26T22:46:45.165Z,96628.24
2019-04-26T22:49:05.924Z,96631.55
2019-04-26T22:51:37.313Z,96628.27
2019-04-26T22:54:07.780Z,96634.31
2019-04-26T22:56:38.417Z,96633.98
2019-04-26T22:59:09.062Z,96629.91
2019-04-26T23:01:44.801Z,96632.17
2019-04-26T23:04:16.238Z,96627.56
2019-04-26T23:06:46.794Z,96629.56
2019-04-26T23:09:17.330Z,96623.67
2019-04-26T23:11:53.862Z,96626.12
2019-04-26T23:14:43.968Z,96632.49
2019-04-26T23:17:34.758Z,96632.17
2019-04-26T23:20:23.388Z,96628.91
2019-04-26T23:23:05.201Z,96626.31
2019-04-26T23:25:36.522Z,96621.38
2019-04-26T23:28:06.988Z,96622.02
2019-04-26T23:30:37.496Z,96622.17
2019-04-26T23:33:07.907Z,96618.91
2019-04-26T23:35:43.498Z,96619.10
2019-04-26T23:38:10.523Z,96612.53
2019-04-26T23:40:42.983Z,96613.48
2019-04-26T23:43:13.512Z,96609.56
2019-04-26T23:45:48.305Z,96609.56
2019-04-26T23:48:16.082Z,96607.47
2019-04-26T23:50:46.500Z,96613.88
2019-04-26T23:53:20.207Z,96614.50
2019-04-26T23:55:49.130Z,96612.86
2019-04-26T23:58:19.581Z,96612.86
